sensor_id;sensor_type;location;lat;lon;timestamp;P1;durP1;ratioP1;P2;durP2;ratioP2
15132;SDS011;7667;51.232;17.110;2023-05-10T00:01:45;9.13;;;6.37;;
15132;SDS011;7667;51.232;17.110;2023-05-10T00:04:12;7.13;;;6.27;;
15132;SDS011;7667;51.232;17.110;2023-05-10T00:06:40;8.40;;;5.97;;
15132;SDS011;7667;51.232;17.110;2023-05-10T00:09:08;7.23;;;5.97;;
15132;SDS011;7667;51.232;17.110;2023-05-10T00:11:36;10.10;;;6.27;;
15132;SDS011;7667;51.232;17.110;2023-05-10T00:14:03;10.13;;;6.37;;
15132;SDS011;7667;51.232;17.110;2023-05-10T00:16:31;8.10;;;6.30;;
15132;SDS011;7667;51.232;17.110;2023-05-10T00:18:59;8.03;;;6.43;;
15132;SDS011;7667;51.232;17.110;2023-05-10T00:21:26;8.33;;;5.83;;
15132;SDS011;7667;51.232;17.110;2023-05-10T00:23:54;7.47;;;5.60;;
15132;SDS011;7667;51.232;17.110;2023-05-10T00:26:22;6.40;;;5.73;;
15132;SDS011;7667;51.232;17.110;2023-05-10T00:28:50;6.57;;;5.90;;
15132;SDS011;7667;51.232;17.110;2023-05-10T00:31:17;7.47;;;6.00;;
15132;SDS011;7667;51.232;17.110;2023-05-10T00:33:45;7.13;;;5.77;;
15132;SDS011;7667;51.232;17.110;2023-05-10T00:36:12;7.50;;;5.97;;
15132;SDS011;7667;51.232;17.110;2023-05-10T00:38:40;8.17;;;5.70;;
15132;SDS011;7667;51.232;17.110;2023-05-10T00:41:08;7.27;;;5.77;;
15132;SDS011;7667;51.232;17.110;2023-05-10T00:43:35;6.90;;;5.50;;
15132;SDS011;7667;51.232;17.110;2023-05-10T00:46:03;7.30;;;6.03;;
15132;SDS011;7667;51.232;17.110;2023-05-10T00:48:31;7.67;;;6.33;;
15132;SDS011;7667;51.232;17.110;2023-05-10T00:50:59;6.67;;;5.70;;
15132;SDS011;7667;51.232;17.110;2023-05-10T00:53:28;6.77;;;6.07;;
15132;SDS011;7667;51.232;17.110;2023-05-10T00:55:59;7.20;;;5.97;;
15132;SDS011;7667;51.232;17.110;2023-05-10T00:58:27;7.57;;;5.90;;
15132;SDS011;7667;51.232;17.110;2023-05-10T01:00:55;8.50;;;5.67;;
15132;SDS011;7667;51.232;17.110;2023-05-10T01:03:24;8.70;;;5.53;;
15132;SDS011;7667;51.232;17.110;2023-05-10T01:05:53;7.40;;;6.27;;
15132;SDS011;7667;51.232;17.110;2023-05-10T01:08:20;7.97;;;5.93;;
15132;SDS011;7667;51.232;17.110;2023-05-10T01:10:48;7.67;;;5.90;;
15132;SDS011;7667;51.232;17.110;2023-05-10T01:13:35;9.60;;;6.00;;
15132;SDS011;7667;51.232;17.110;2023-05-10T01:16:04;6.83;;;5.50;;
15132;SDS011;7667;51.232;17.110;2023-05-10T01:18:37;9.37;;;6.43;;
15132;SDS011;7667;51.232;17.110;2023-05-10T01:33:30;9.97;;;6.07;;
15132;SDS011;7667;51.232;17.110;2023-05-10T01:39:21;6.70;;;6.00;;
15132;SDS011;7667;51.232;17.110;2023-05-10T01:42:14;7.63;;;6.30;;
15132;SDS011;7667;51.232;17.110;2023-05-10T01:45:02;9.60;;;6.33;;
15132;SDS011;7667;51.232;17.110;2023-05-10T01:47:48;17.43;;;10.57;;
15132;SDS011;7667;51.232;17.110;2023-05-10T01:50:27;19.93;;;10.30;;
15132;SDS011;7667;51.232;17.110;2023-05-10T01:52:57;16.10;;;9.13;;
15132;SDS011;7667;51.232;17.110;2023-05-10T01:55:28;30.47;;;11.33;;
15132;SDS011;7667;51.232;17.110;2023-05-10T01:58:03;31.03;;;12.40;;
15132;SDS011;7667;51.232;17.110;2023-05-10T02:00:36;26.67;;;11.03;;
15132;SDS011;7667;51.232;17.110;2023-05-10T02:03:10;26.30;;;11.63;;
15132;SDS011;7667;51.232;17.110;2023-05-10T02:05:41;37.53;;;13.60;;
15132;SDS011;7667;51.232;17.110;2023-05-10T02:08:11;31.40;;;12.77;;
15132;SDS011;7667;51.232;17.110;2023-05-10T02:10:42;33.50;;;13.00;;
15132;SDS011;7667;51.232;17.110;2023-05-10T02:13:12;39.03;;;14.30;;
15132;SDS011;7667;51.232;17.110;2023-05-10T02:15:42;30.67;;;12.50;;
15132;SDS011;7667;51.232;17.110;2023-05-10T02:18:11;22.70;;;10.67;;
15132;SDS011;7667;51.232;17.110;2023-05-10T02:20:40;26.03;;;11.13;;
15132;SDS011;7667;51.232;17.110;2023-05-10T02:23:11;27.93;;;13.33;;
15132;SDS011;7667;51.232;17.110;2023-05-10T02:25:43;31.77;;;14.07;;
15132;SDS011;7667;51.232;17.110;2023-05-10T02:28:12;30.17;;;13.10;;
15132;SDS011;7667;51.232;17.110;2023-05-10T02:30:41;25.30;;;11.67;;
15132;SDS011;7667;51.232;17.110;2023-05-10T02:33:09;30.87;;;12.23;;
15132;SDS011;7667;51.232;17.110;2023-05-10T02:35:38;32.57;;;12.37;;
15132;SDS011;7667;51.232;17.110;2023-05-10T02:38:07;30.10;;;12.90;;
15132;SDS011;7667;51.232;17.110;2023-05-10T02:40:35;26.13;;;11.93;;
15132;SDS011;7667;51.232;17.110;2023-05-10T02:43:04;26.47;;;12.37;;
15132;SDS011;7667;51.232;17.110;2023-05-10T02:45:36;32.23;;;13.77;;
15132;SDS011;7667;51.232;17.110;2023-05-10T02:48:05;21.93;;;10.10;;
15132;SDS011;7667;51.232;17.110;2023-05-10T02:50:33;24.73;;;12.23;;
15132;SDS011;7667;51.232;17.110;2023-05-10T02:53:06;17.20;;;9.80;;
15132;SDS011;7667;51.232;17.110;2023-05-10T02:55:40;20.23;;;10.50;;
15132;SDS011;7667;51.232;17.110;2023-05-10T02:58:10;20.77;;;10.97;;
15132;SDS011;7667;51.232;17.110;2023-05-10T03:00:38;24.83;;;12.07;;
15132;SDS011;7667;51.232;17.110;2023-05-10T03:03:05;20.47;;;11.10;;
15132;SDS011;7667;51.232;17.110;2023-05-10T03:05:33;20.33;;;11.37;;
15132;SDS011;7667;51.232;17.110;2023-05-10T03:08:01;24.53;;;12.17;;
15132;SDS011;7667;51.232;17.110;2023-05-10T03:10:31;19.17;;;10.50;;
15132;SDS011;7667;51.232;17.110;2023-05-10T03:13:06;18.60;;;10.17;;
15132;SDS011;7667;51.232;17.110;2023-05-10T03:16:12;24.57;;;11.40;;
15132;SDS011;7667;51.232;17.110;2023-05-10T03:21:23;22.53;;;11.50;;
15132;SDS011;7667;51.232;17.110;2023-05-10T03:26:33;15.03;;;10.00;;
15132;SDS011;7667;51.232;17.110;2023-05-10T03:29:02;12.67;;;9.10;;
15132;SDS011;7667;51.232;17.110;2023-05-10T03:31:33;12.63;;;8.50;;
15132;SDS011;7667;51.232;17.110;2023-05-10T03:34:00;9.90;;;7.47;;
15132;SDS011;7667;51.232;17.110;2023-05-10T03:36:28;11.43;;;7.67;;
15132;SDS011;7667;51.232;17.110;2023-05-10T03:38:56;9.53;;;6.93;;
15132;SDS011;7667;51.232;17.110;2023-05-10T03:41:23;8.93;;;6.77;;
15132;SDS011;7667;51.232;17.110;2023-05-10T03:43:52;10.63;;;7.13;;
15132;SDS011;7667;51.232;17.110;2023-05-10T03:46:19;10.03;;;6.60;;
15132;SDS011;7667;51.232;17.110;2023-05-10T03:48:47;11.20;;;7.87;;
15132;SDS011;7667;51.232;17.110;2023-05-10T03:51:14;12.07;;;7.80;;
15132;SDS011;7667;51.232;17.110;2023-05-10T03:53:42;10.90;;;7.70;;
15132;SDS011;7667;51.232;17.110;2023-05-10T03:56:09;10.30;;;6.87;;
15132;SDS011;7667;51.232;17.110;2023-05-10T03:58:37;8.87;;;6.90;;
15132;SDS011;7667;51.232;17.110;2023-05-10T04:01:05;9.67;;;6.87;;
15132;SDS011;7667;51.232;17.110;2023-05-10T04:03:32;9.37;;;6.83;;
15132;SDS011;7667;51.232;17.110;2023-05-10T04:06:02;9.23;;;6.97;;
15132;SDS011;7667;51.232;17.110;2023-05-10T04:08:30;10.10;;;6.70;;
15132;SDS011;7667;51.232;17.110;2023-05-10T04:11:08;8.30;;;6.30;;
15132;SDS011;7667;51.232;17.110;2023-05-10T04:13:38;11.07;;;6.30;;
15132;SDS011;7667;51.232;17.110;2023-05-10T04:16:05;7.63;;;5.70;;
15132;SDS011;7667;51.232;17.110;2023-05-10T04:18:33;8.53;;;6.10;;
15132;SDS011;7667;51.232;17.110;2023-05-10T04:21:00;8.87;;;6.87;;
15132;SDS011;7667;51.232;17.110;2023-05-10T04:23:28;12.43;;;7.70;;
15132;SDS011;7667;51.232;17.110;2023-05-10T04:25:59;13.00;;;8.83;;
15132;SDS011;7667;51.232;17.110;2023-05-10T04:28:28;7.73;;;6.00;;
15132;SDS011;7667;51.232;17.110;2023-05-10T04:33:30;7.33;;;5.43;;
15132;SDS011;7667;51.232;17.110;2023-05-10T04:35:59;6.07;;;5.23;;
15132;SDS011;7667;51.232;17.110;2023-05-10T04:38:27;8.53;;;5.30;;
15132;SDS011;7667;51.232;17.110;2023-05-10T04:41:05;5.83;;;5.00;;
15132;SDS011;7667;51.232;17.110;2023-05-10T04:43:34;8.43;;;5.10;;
15132;SDS011;7667;51.232;17.110;2023-05-10T04:46:03;9.33;;;5.00;;
15132;SDS011;7667;51.232;17.110;2023-05-10T04:48:32;7.07;;;5.00;;
15132;SDS011;7667;51.232;17.110;2023-05-10T04:51:00;7.40;;;5.10;;
15132;SDS011;7667;51.232;17.110;2023-05-10T04:53:28;6.23;;;4.63;;
15132;SDS011;7667;51.232;17.110;2023-05-10T04:55:55;6.83;;;5.27;;
15132;SDS011;7667;51.232;17.110;2023-05-10T04:58:23;8.23;;;5.60;;
15132;SDS011;7667;51.232;17.110;2023-05-10T05:00:51;8.60;;;4.93;;
15132;SDS011;7667;51.232;17.110;2023-05-10T05:03:19;7.70;;;5.17;;
15132;SDS011;7667;51.232;17.110;2023-05-10T05:05:47;6.13;;;4.63;;
15132;SDS011;7667;51.232;17.110;2023-05-10T05:08:15;7.13;;;4.60;;
15132;SDS011;7667;51.232;17.110;2023-05-10T05:10:42;6.13;;;4.70;;
15132;SDS011;7667;51.232;17.110;2023-05-10T05:13:12;7.37;;;4.67;;
15132;SDS011;7667;51.232;17.110;2023-05-10T05:15:39;7.40;;;4.40;;
15132;SDS011;7667;51.232;17.110;2023-05-10T05:18:07;7.67;;;4.53;;
15132;SDS011;7667;51.232;17.110;2023-05-10T05:20:35;5.03;;;3.90;;
15132;SDS011;7667;51.232;17.110;2023-05-10T05:23:02;6.73;;;4.27;;
15132;SDS011;7667;51.232;17.110;2023-05-10T05:25:30;4.80;;;3.90;;
15132;SDS011;7667;51.232;17.110;2023-05-10T05:27:58;6.70;;;4.50;;
15132;SDS011;7667;51.232;17.110;2023-05-10T05:30:26;6.30;;;4.20;;
15132;SDS011;7667;51.232;17.110;2023-05-10T05:32:55;4.70;;;3.90;;
15132;SDS011;7667;51.232;17.110;2023-05-10T05:35:23;6.93;;;4.00;;
15132;SDS011;7667;51.232;17.110;2023-05-10T05:37:51;7.00;;;3.73;;
15132;SDS011;7667;51.232;17.110;2023-05-10T05:40:20;6.37;;;3.93;;
15132;SDS011;7667;51.232;17.110;2023-05-10T05:42:58;6.57;;;4.17;;
15132;SDS011;7667;51.232;17.110;2023-05-10T05:45:35;6.17;;;4.43;;
15132;SDS011;7667;51.232;17.110;2023-05-10T05:48:13;6.70;;;4.10;;
15132;SDS011;7667;51.232;17.110;2023-05-10T05:50:54;6.50;;;3.73;;
15132;SDS011;7667;51.232;17.110;2023-05-10T05:53:34;5.80;;;3.90;;
15132;SDS011;7667;51.232;17.110;2023-05-10T05:56:10;6.67;;;3.93;;
15132;SDS011;7667;51.232;17.110;2023-05-10T05:58:50;4.83;;;3.67;;
15132;SDS011;7667;51.232;17.110;2023-05-10T06:01:33;6.53;;;4.00;;
15132;SDS011;7667;51.232;17.110;2023-05-10T06:04:11;4.90;;;3.90;;
15132;SDS011;7667;51.232;17.110;2023-05-10T06:06:48;4.93;;;3.30;;
15132;SDS011;7667;51.232;17.110;2023-05-10T06:09:19;4.90;;;4.20;;
15132;SDS011;7667;51.232;17.110;2023-05-10T06:11:46;4.90;;;3.90;;
15132;SDS011;7667;51.232;17.110;2023-05-10T06:14:14;4.67;;;3.60;;
15132;SDS011;7667;51.232;17.110;2023-05-10T06:16:41;4.37;;;3.60;;
15132;SDS011;7667;51.232;17.110;2023-05-10T06:19:10;5.77;;;3.97;;
15132;SDS011;7667;51.232;17.110;2023-05-10T06:21:38;5.50;;;3.37;;
15132;SDS011;7667;51.232;17.110;2023-05-10T06:24:06;3.87;;;3.13;;
15132;SDS011;7667;51.232;17.110;2023-05-10T06:26:33;5.17;;;3.33;;
15132;SDS011;7667;51.232;17.110;2023-05-10T06:29:01;4.20;;;3.50;;
15132;SDS011;7667;51.232;17.110;2023-05-10T06:31:29;5.40;;;3.33;;
15132;SDS011;7667;51.232;17.110;2023-05-10T06:33:56;4.77;;;3.27;;
15132;SDS011;7667;51.232;17.110;2023-05-10T06:36:24;5.30;;;3.40;;
15132;SDS011;7667;51.232;17.110;2023-05-10T06:38:52;6.67;;;3.43;;
15132;SDS011;7667;51.232;17.110;2023-05-10T06:41:21;3.73;;;3.00;;
15132;SDS011;7667;51.232;17.110;2023-05-10T06:43:50;4.47;;;2.73;;
15132;SDS011;7667;51.232;17.110;2023-05-10T06:46:18;3.90;;;2.80;;
15132;SDS011;7667;51.232;17.110;2023-05-10T06:48:45;3.57;;;3.20;;
15132;SDS011;7667;51.232;17.110;2023-05-10T06:51:13;5.37;;;3.20;;
15132;SDS011;7667;51.232;17.110;2023-05-10T06:53:41;3.43;;;3.00;;
15132;SDS011;7667;51.232;17.110;2023-05-10T06:56:08;4.50;;;3.10;;
15132;SDS011;7667;51.232;17.110;2023-05-10T06:58:37;4.77;;;3.10;;
15132;SDS011;7667;51.232;17.110;2023-05-10T07:01:05;13.03;;;3.60;;
15132;SDS011;7667;51.232;17.110;2023-05-10T07:03:33;3.93;;;2.70;;
15132;SDS011;7667;51.232;17.110;2023-05-10T07:06:04;4.43;;;2.97;;
15132;SDS011;7667;51.232;17.110;2023-05-10T07:08:41;3.50;;;2.60;;
15132;SDS011;7667;51.232;17.110;2023-05-10T07:11:08;4.07;;;2.70;;
15132;SDS011;7667;51.232;17.110;2023-05-10T07:13:37;4.57;;;2.50;;
15132;SDS011;7667;51.232;17.110;2023-05-10T07:16:08;4.37;;;2.30;;
15132;SDS011;7667;51.232;17.110;2023-05-10T07:18:35;3.73;;;2.50;;
15132;SDS011;7667;51.232;17.110;2023-05-10T07:21:03;3.23;;;2.50;;
15132;SDS011;7667;51.232;17.110;2023-05-10T07:23:31;4.50;;;2.60;;
15132;SDS011;7667;51.232;17.110;2023-05-10T07:25:59;5.33;;;2.50;;
15132;SDS011;7667;51.232;17.110;2023-05-10T07:28:28;3.33;;;2.27;;
15132;SDS011;7667;51.232;17.110;2023-05-10T07:30:56;4.03;;;2.30;;
15132;SDS011;7667;51.232;17.110;2023-05-10T07:33:24;3.37;;;2.10;;
15132;SDS011;7667;51.232;17.110;2023-05-10T07:35:51;4.00;;;2.17;;
15132;SDS011;7667;51.232;17.110;2023-05-10T07:38:19;2.47;;;1.93;;
15132;SDS011;7667;51.232;17.110;2023-05-10T07:40:46;2.57;;;1.90;;
15132;SDS011;7667;51.232;17.110;2023-05-10T07:43:14;2.77;;;2.10;;
15132;SDS011;7667;51.232;17.110;2023-05-10T07:45:41;3.63;;;2.23;;
15132;SDS011;7667;51.232;17.110;2023-05-10T07:48:10;4.00;;;2.20;;
15132;SDS011;7667;51.232;17.110;2023-05-10T07:50:37;2.87;;;2.00;;
15132;SDS011;7667;51.232;17.110;2023-05-10T07:53:05;2.90;;;2.00;;
15132;SDS011;7667;51.232;17.110;2023-05-10T07:55:33;3.80;;;2.20;;
15132;SDS011;7667;51.232;17.110;2023-05-10T07:58:01;3.50;;;2.47;;
15132;SDS011;7667;51.232;17.110;2023-05-10T08:00:29;4.07;;;2.37;;
15132;SDS011;7667;51.232;17.110;2023-05-10T08:02:57;3.80;;;2.53;;
15132;SDS011;7667;51.232;17.110;2023-05-10T08:05:25;3.63;;;2.63;;
15132;SDS011;7667;51.232;17.110;2023-05-10T08:07:52;6.40;;;2.20;;
15132;SDS011;7667;51.232;17.110;2023-05-10T08:10:20;3.50;;;2.40;;
15132;SDS011;7667;51.232;17.110;2023-05-10T08:12:48;2.90;;;2.17;;
15132;SDS011;7667;51.232;17.110;2023-05-10T08:15:19;6.53;;;2.53;;
15132;SDS011;7667;51.232;17.110;2023-05-10T08:17:47;6.67;;;2.63;;
15132;SDS011;7667;51.232;17.110;2023-05-10T08:20:15;5.90;;;2.50;;
15132;SDS011;7667;51.232;17.110;2023-05-10T08:22:48;3.03;;;2.23;;
15132;SDS011;7667;51.232;17.110;2023-05-10T08:25:18;3.07;;;2.30;;
15132;SDS011;7667;51.232;17.110;2023-05-10T08:27:48;5.50;;;2.50;;
15132;SDS011;7667;51.232;17.110;2023-05-10T08:30:20;2.53;;;2.10;;
15132;SDS011;7667;51.232;17.110;2023-05-10T08:32:47;3.00;;;2.20;;
15132;SDS011;7667;51.232;17.110;2023-05-10T08:35:15;3.77;;;2.37;;
15132;SDS011;7667;51.232;17.110;2023-05-10T08:37:44;3.73;;;2.37;;
15132;SDS011;7667;51.232;17.110;2023-05-10T08:40:13;3.47;;;2.40;;
15132;SDS011;7667;51.232;17.110;2023-05-10T08:42:49;2.43;;;2.17;;
15132;SDS011;7667;51.232;17.110;2023-05-10T08:45:43;3.37;;;2.30;;
15132;SDS011;7667;51.232;17.110;2023-05-10T08:48:16;2.93;;;2.37;;
15132;SDS011;7667;51.232;17.110;2023-05-10T08:50:47;5.17;;;2.30;;
15132;SDS011;7667;51.232;17.110;2023-05-10T08:53:24;3.93;;;2.37;;
15132;SDS011;7667;51.232;17.110;2023-05-10T08:55:53;3.40;;;2.30;;
15132;SDS011;7667;51.232;17.110;2023-05-10T08:58:22;3.33;;;2.57;;
15132;SDS011;7667;51.232;17.110;2023-05-10T09:00:50;3.77;;;2.70;;
15132;SDS011;7667;51.232;17.110;2023-05-10T09:03:18;5.60;;;2.40;;
15132;SDS011;7667;51.232;17.110;2023-05-10T09:05:46;3.30;;;2.30;;
15132;SDS011;7667;51.232;17.110;2023-05-10T09:08:15;6.73;;;2.40;;
15132;SDS011;7667;51.232;17.110;2023-05-10T09:10:44;5.40;;;2.10;;
15132;SDS011;7667;51.232;17.110;2023-05-10T09:13:14;2.30;;;1.80;;
15132;SDS011;7667;51.232;17.110;2023-05-10T09:15:45;4.33;;;2.33;;
15132;SDS011;7667;51.232;17.110;2023-05-10T09:18:13;5.60;;;2.50;;
15132;SDS011;7667;51.232;17.110;2023-05-10T09:20:40;3.37;;;2.43;;
15132;SDS011;7667;51.232;17.110;2023-05-10T09:23:09;3.57;;;2.33;;
15132;SDS011;7667;51.232;17.110;2023-05-10T09:25:36;3.00;;;2.00;;
15132;SDS011;7667;51.232;17.110;2023-05-10T09:28:08;2.73;;;2.07;;
15132;SDS011;7667;51.232;17.110;2023-05-10T09:30:36;5.57;;;2.23;;
15132;SDS011;7667;51.232;17.110;2023-05-10T09:33:04;2.83;;;2.10;;
15132;SDS011;7667;51.232;17.110;2023-05-10T09:35:32;3.10;;;2.00;;
15132;SDS011;7667;51.232;17.110;2023-05-10T09:38:01;4.60;;;2.10;;
15132;SDS011;7667;51.232;17.110;2023-05-10T09:40:31;4.27;;;2.10;;
15132;SDS011;7667;51.232;17.110;2023-05-10T09:45:34;2.47;;;1.77;;
15132;SDS011;7667;51.232;17.110;2023-05-10T09:48:04;2.93;;;2.00;;
15132;SDS011;7667;51.232;17.110;2023-05-10T09:50:32;3.57;;;2.10;;
15132;SDS011;7667;51.232;17.110;2023-05-10T09:53:02;5.50;;;2.63;;
15132;SDS011;7667;51.232;17.110;2023-05-10T09:55:43;3.57;;;1.90;;
15132;SDS011;7667;51.232;17.110;2023-05-10T09:58:13;3.50;;;2.40;;
15132;SDS011;7667;51.232;17.110;2023-05-10T10:00:42;2.37;;;2.00;;
15132;SDS011;7667;51.232;17.110;2023-05-10T10:03:12;2.33;;;2.00;;
15132;SDS011;7667;51.232;17.110;2023-05-10T10:05:42;3.40;;;2.10;;
15132;SDS011;7667;51.232;17.110;2023-05-10T10:08:11;2.70;;;2.20;;
15132;SDS011;7667;51.232;17.110;2023-05-10T10:10:40;4.67;;;2.50;;
15132;SDS011;7667;51.232;17.110;2023-05-10T10:13:12;2.63;;;2.00;;
15132;SDS011;7667;51.232;17.110;2023-05-10T10:15:40;3.90;;;2.23;;
15132;SDS011;7667;51.232;17.110;2023-05-10T10:18:14;2.73;;;2.23;;
15132;SDS011;7667;51.232;17.110;2023-05-10T10:20:44;3.30;;;2.20;;
15132;SDS011;7667;51.232;17.110;2023-05-10T10:23:12;3.20;;;2.17;;
15132;SDS011;7667;51.232;17.110;2023-05-10T10:25:43;3.77;;;2.10;;
15132;SDS011;7667;51.232;17.110;2023-05-10T10:31:15;2.33;;;1.90;;
15132;SDS011;7667;51.232;17.110;2023-05-10T10:34:03;2.40;;;2.00;;
15132;SDS011;7667;51.232;17.110;2023-05-10T10:36:42;2.90;;;1.80;;
15132;SDS011;7667;51.232;17.110;2023-05-10T10:39:12;2.23;;;1.83;;
15132;SDS011;7667;51.232;17.110;2023-05-10T10:41:51;5.55;;;2.17;;
15132;SDS011;7667;51.232;17.110;2023-05-10T10:49:49;4.33;;;2.10;;
15132;SDS011;7667;51.232;17.110;2023-05-10T10:52:31;3.47;;;2.20;;
15132;SDS011;7667;51.232;17.110;2023-05-10T10:57:42;2.75;;;2.08;;
15132;SDS011;7667;51.232;17.110;2023-05-10T11:03:11;3.67;;;2.20;;
15132;SDS011;7667;51.232;17.110;2023-05-10T11:08:17;1.88;;;1.70;;
15132;SDS011;7667;51.232;17.110;2023-05-10T11:16:13;2.78;;;1.80;;
15132;SDS011;7667;51.232;17.110;2023-05-10T11:21:32;3.53;;;2.40;;
15132;SDS011;7667;51.232;17.110;2023-05-10T11:24:01;3.08;;;2.17;;
15132;SDS011;7667;51.232;17.110;2023-05-10T11:26:35;4.40;;;2.75;;
15132;SDS011;7667;51.232;17.110;2023-05-10T11:29:03;2.33;;;2.00;;
15132;SDS011;7667;51.232;17.110;2023-05-10T11:31:31;2.25;;;2.00;;
15132;SDS011;7667;51.232;17.110;2023-05-10T11:33:59;3.72;;;2.45;;
15132;SDS011;7667;51.232;17.110;2023-05-10T11:36:37;3.67;;;2.30;;
15132;SDS011;7667;51.232;17.110;2023-05-10T11:39:05;3.17;;;2.15;;
15132;SDS011;7667;51.232;17.110;2023-05-10T11:41:32;4.97;;;2.53;;
15132;SDS011;7667;51.232;17.110;2023-05-10T11:44:00;3.80;;;2.40;;
15132;SDS011;7667;51.232;17.110;2023-05-10T11:46:29;3.63;;;2.38;;
15132;SDS011;7667;51.232;17.110;2023-05-10T11:49:00;3.33;;;2.10;;
15132;SDS011;7667;51.232;17.110;2023-05-10T11:51:32;3.33;;;2.40;;
15132;SDS011;7667;51.232;17.110;2023-05-10T11:54:06;3.08;;;2.03;;
15132;SDS011;7667;51.232;17.110;2023-05-10T11:56:39;4.03;;;2.00;;
15132;SDS011;7667;51.232;17.110;2023-05-10T11:59:07;3.55;;;2.13;;
15132;SDS011;7667;51.232;17.110;2023-05-10T12:01:36;3.42;;;1.90;;
15132;SDS011;7667;51.232;17.110;2023-05-10T12:04:03;2.03;;;1.83;;
15132;SDS011;7667;51.232;17.110;2023-05-10T12:06:32;2.47;;;2.08;;
15132;SDS011;7667;51.232;17.110;2023-05-10T12:09:07;2.00;;;1.80;;
15132;SDS011;7667;51.232;17.110;2023-05-10T12:11:39;5.53;;;2.10;;
15132;SDS011;7667;51.232;17.110;2023-05-10T12:14:10;2.47;;;1.95;;
15132;SDS011;7667;51.232;17.110;2023-05-10T12:16:37;1.98;;;1.80;;
15132;SDS011;7667;51.232;17.110;2023-05-10T12:19:05;4.28;;;2.17;;
15132;SDS011;7667;51.232;17.110;2023-05-10T12:21:33;2.08;;;1.70;;
15132;SDS011;7667;51.232;17.110;2023-05-10T12:24:02;2.67;;;1.80;;
15132;SDS011;7667;51.232;17.110;2023-05-10T12:26:31;3.15;;;1.95;;
15132;SDS011;7667;51.232;17.110;2023-05-10T12:29:15;2.95;;;1.70;;
15132;SDS011;7667;51.232;17.110;2023-05-10T12:31:58;2.92;;;1.70;;
15132;SDS011;7667;51.232;17.110;2023-05-10T12:34:29;6.53;;;2.45;;
15132;SDS011;7667;51.232;17.110;2023-05-10T12:36:58;4.45;;;1.77;;
15132;SDS011;7667;51.232;17.110;2023-05-10T12:39:26;4.20;;;1.65;;
15132;SDS011;7667;51.232;17.110;2023-05-10T12:42:05;2.22;;;1.98;;
15132;SDS011;7667;51.232;17.110;2023-05-10T12:44:33;5.60;;;2.20;;
15132;SDS011;7667;51.232;17.110;2023-05-10T12:47:00;3.88;;;1.90;;
15132;SDS011;7667;51.232;17.110;2023-05-10T12:49:28;1.90;;;1.60;;
15132;SDS011;7667;51.232;17.110;2023-05-10T12:51:55;6.65;;;1.70;;
15132;SDS011;7667;51.232;17.110;2023-05-10T12:54:23;1.80;;;1.70;;
15132;SDS011;7667;51.232;17.110;2023-05-10T12:56:50;3.22;;;1.60;;
15132;SDS011;7667;51.232;17.110;2023-05-10T12:59:18;3.05;;;1.80;;
15132;SDS011;7667;51.232;17.110;2023-05-10T13:01:45;2.30;;;1.70;;
15132;SDS011;7667;51.232;17.110;2023-05-10T13:04:13;2.78;;;2.10;;
15132;SDS011;7667;51.232;17.110;2023-05-10T13:06:41;5.45;;;1.80;;
15132;SDS011;7667;51.232;17.110;2023-05-10T13:09:08;2.33;;;1.67;;
15132;SDS011;7667;51.232;17.110;2023-05-10T13:11:36;3.28;;;1.77;;
15132;SDS011;7667;51.232;17.110;2023-05-10T13:14:03;5.07;;;2.65;;
15132;SDS011;7667;51.232;17.110;2023-05-10T13:16:31;3.40;;;1.75;;
15132;SDS011;7667;51.232;17.110;2023-05-10T13:18:59;1.77;;;1.50;;
15132;SDS011;7667;51.232;17.110;2023-05-10T13:21:26;3.08;;;1.50;;
15132;SDS011;7667;51.232;17.110;2023-05-10T13:23:54;3.42;;;1.80;;
15132;SDS011;7667;51.232;17.110;2023-05-10T13:26:22;1.60;;;1.50;;
15132;SDS011;7667;51.232;17.110;2023-05-10T13:28:49;4.10;;;1.95;;
15132;SDS011;7667;51.232;17.110;2023-05-10T13:31:18;3.15;;;1.70;;
15132;SDS011;7667;51.232;17.110;2023-05-10T13:33:46;2.15;;;1.45;;
15132;SDS011;7667;51.232;17.110;2023-05-10T13:36:13;3.72;;;1.50;;
15132;SDS011;7667;51.232;17.110;2023-05-10T13:38:41;1.85;;;1.27;;
15132;SDS011;7667;51.232;17.110;2023-05-10T13:41:08;1.50;;;1.38;;
15132;SDS011;7667;51.232;17.110;2023-05-10T13:43:36;1.40;;;1.30;;
15132;SDS011;7667;51.232;17.110;2023-05-10T13:46:04;2.13;;;1.50;;
15132;SDS011;7667;51.232;17.110;2023-05-10T13:48:31;1.95;;;1.30;;
15132;SDS011;7667;51.232;17.110;2023-05-10T13:50:59;1.60;;;1.50;;
15132;SDS011;7667;51.232;17.110;2023-05-10T13:53:27;3.92;;;1.35;;
15132;SDS011;7667;51.232;17.110;2023-05-10T13:55:54;2.30;;;1.58;;
15132;SDS011;7667;51.232;17.110;2023-05-10T13:58:22;2.38;;;1.75;;
15132;SDS011;7667;51.232;17.110;2023-05-10T14:00:50;4.65;;;1.67;;
15132;SDS011;7667;51.232;17.110;2023-05-10T14:03:17;1.90;;;1.60;;
15132;SDS011;7667;51.232;17.110;2023-05-10T14:05:45;2.55;;;1.73;;
15132;SDS011;7667;51.232;17.110;2023-05-10T14:08:13;3.50;;;1.58;;
15132;SDS011;7667;51.232;17.110;2023-05-10T14:10:41;2.97;;;1.50;;
15132;SDS011;7667;51.232;17.110;2023-05-10T14:13:09;2.95;;;1.60;;
15132;SDS011;7667;51.232;17.110;2023-05-10T14:15:36;2.38;;;1.85;;
15132;SDS011;7667;51.232;17.110;2023-05-10T14:18:04;2.75;;;1.52;;
15132;SDS011;7667;51.232;17.110;2023-05-10T14:20:31;2.42;;;1.50;;
15132;SDS011;7667;51.232;17.110;2023-05-10T14:23:00;1.50;;;1.40;;
15132;SDS011;7667;51.232;17.110;2023-05-10T14:25:27;3.60;;;1.52;;
15132;SDS011;7667;51.232;17.110;2023-05-10T14:27:55;1.92;;;1.60;;
15132;SDS011;7667;51.232;17.110;2023-05-10T14:30:22;1.50;;;1.40;;
15132;SDS011;7667;51.232;17.110;2023-05-10T14:32:50;4.72;;;1.55;;
15132;SDS011;7667;51.232;17.110;2023-05-10T14:35:17;2.97;;;1.52;;
15132;SDS011;7667;51.232;17.110;2023-05-10T14:37:45;3.75;;;1.50;;
15132;SDS011;7667;51.232;17.110;2023-05-10T14:40:13;1.90;;;1.40;;
15132;SDS011;7667;51.232;17.110;2023-05-10T14:42:42;1.40;;;1.30;;
15132;SDS011;7667;51.232;17.110;2023-05-10T14:45:10;3.80;;;1.25;;
15132;SDS011;7667;51.232;17.110;2023-05-10T14:47:38;1.90;;;1.70;;
15132;SDS011;7667;51.232;17.110;2023-05-10T14:50:06;3.10;;;1.70;;
15132;SDS011;7667;51.232;17.110;2023-05-10T14:52:34;1.83;;;1.40;;
15132;SDS011;7667;51.232;17.110;2023-05-10T14:55:02;3.75;;;2.10;;
15132;SDS011;7667;51.232;17.110;2023-05-10T14:57:30;1.42;;;1.30;;
15132;SDS011;7667;51.232;17.110;2023-05-10T14:59:58;1.30;;;1.20;;
15132;SDS011;7667;51.232;17.110;2023-05-10T15:02:26;4.53;;;1.88;;
15132;SDS011;7667;51.232;17.110;2023-05-10T15:04:55;1.67;;;1.50;;
15132;SDS011;7667;51.232;17.110;2023-05-10T15:07:24;2.03;;;1.42;;
15132;SDS011;7667;51.232;17.110;2023-05-10T15:09:51;2.38;;;1.60;;
15132;SDS011;7667;51.232;17.110;2023-05-10T15:12:19;2.42;;;1.50;;
15132;SDS011;7667;51.232;17.110;2023-05-10T15:14:47;1.63;;;1.52;;
15132;SDS011;7667;51.232;17.110;2023-05-10T15:17:14;4.60;;;1.50;;
15132;SDS011;7667;51.232;17.110;2023-05-10T15:19:42;1.48;;;1.38;;
15132;SDS011;7667;51.232;17.110;2023-05-10T15:22:10;2.40;;;1.48;;
15132;SDS011;7667;51.232;17.110;2023-05-10T15:24:37;2.95;;;1.52;;
15132;SDS011;7667;51.232;17.110;2023-05-10T15:27:05;1.63;;;1.40;;
15132;SDS011;7667;51.232;17.110;2023-05-10T15:29:32;4.35;;;2.60;;
15132;SDS011;7667;51.232;17.110;2023-05-10T15:32:01;4.40;;;2.70;;
15132;SDS011;7667;51.232;17.110;2023-05-10T15:34:29;1.80;;;1.70;;
15132;SDS011;7667;51.232;17.110;2023-05-10T15:37:00;1.48;;;1.38;;
15132;SDS011;7667;51.232;17.110;2023-05-10T15:39:27;4.07;;;2.80;;
15132;SDS011;7667;51.232;17.110;2023-05-10T15:41:55;3.83;;;3.25;;
15132;SDS011;7667;51.232;17.110;2023-05-10T15:44:22;2.20;;;2.00;;
15132;SDS011;7667;51.232;17.110;2023-05-10T15:46:50;2.58;;;1.90;;
15132;SDS011;7667;51.232;17.110;2023-05-10T15:49:18;2.33;;;2.10;;
15132;SDS011;7667;51.232;17.110;2023-05-10T15:51:46;1.52;;;1.40;;